sensor_id;sensor_type;location;lat;lon;timestamp;P1;durP1;ratioP1;P2;durP2;ratioP2
9671;SDS011;4874;43.568;27.824;2022-08-24T00:00:21;35.67;;;11.27;;
9671;SDS011;4874;43.568;27.824;2022-08-24T00:02:48;37.42;;;11.55;;
9671;SDS011;4874;43.568;27.824;2022-08-24T00:05:16;28.73;;;10.60;;
9671;SDS011;4874;43.568;27.824;2022-08-24T00:07:47;31.42;;;8.55;;
9671;SDS011;4874;43.568;27.824;2022-08-24T00:10:14;36.60;;;11.00;;
9671;SDS011;4874;43.568;27.824;2022-08-24T00:12:42;28.75;;;10.23;;
9671;SDS011;4874;43.568;27.824;2022-08-24T00:15:09;33.03;;;9.18;;
9671;SDS011;4874;43.568;27.824;2022-08-24T00:17:37;27.35;;;9.18;;
9671;SDS011;4874;43.568;27.824;2022-08-24T00:20:04;30.42;;;9.95;;
9671;SDS011;4874;43.568;27.824;2022-08-24T00:22:34;23.23;;;8.55;;
9671;SDS011;4874;43.568;27.824;2022-08-24T00:25:01;41.58;;;10.98;;
9671;SDS011;4874;43.568;27.824;2022-08-24T00:27:29;46.42;;;11.75;;
9671;SDS011;4874;43.568;27.824;2022-08-24T00:29:56;38.33;;;11.05;;
9671;SDS011;4874;43.568;27.824;2022-08-24T00:32:23;59.28;;;11.95;;
9671;SDS011;4874;43.568;27.824;2022-08-24T00:34:49;45.47;;;11.43;;
9671;SDS011;4874;43.568;27.824;2022-08-24T00:37:23;38.83;;;11.65;;
9671;SDS011;4874;43.568;27.824;2022-08-24T00:39:50;27.88;;;10.30;;
9671;SDS011;4874;43.568;27.824;2022-08-24T00:42:17;29.65;;;9.77;;
9671;SDS011;4874;43.568;27.824;2022-08-24T00:44:44;30.35;;;9.68;;
9671;SDS011;4874;43.568;27.824;2022-08-24T00:47:15;32.47;;;9.75;;
9671;SDS011;4874;43.568;27.824;2022-08-24T00:49:51;29.48;;;10.13;;
9671;SDS011;4874;43.568;27.824;2022-08-24T00:52:27;38.05;;;10.20;;
9671;SDS011;4874;43.568;27.824;2022-08-24T00:55:02;26.40;;;9.32;;
9671;SDS011;4874;43.568;27.824;2022-08-24T00:57:34;29.88;;;9.57;;
9671;SDS011;4874;43.568;27.824;2022-08-24T01:00:40;24.92;;;9.77;;
9671;SDS011;4874;43.568;27.824;2022-08-24T01:03:01;23.70;;;9.52;;
9671;SDS011;4874;43.568;27.824;2022-08-24T01:05:30;20.77;;;8.18;;
9671;SDS011;4874;43.568;27.824;2022-08-24T01:07:58;22.65;;;9.00;;
9671;SDS011;4874;43.568;27.824;2022-08-24T01:10:28;28.27;;;9.85;;
9671;SDS011;4874;43.568;27.824;2022-08-24T01:13:00;26.10;;;9.82;;
9671;SDS011;4874;43.568;27.824;2022-08-24T01:15:29;24.48;;;9.25;;
9671;SDS011;4874;43.568;27.824;2022-08-24T01:17:59;22.98;;;8.88;;
9671;SDS011;4874;43.568;27.824;2022-08-24T01:20:47;21.63;;;9.27;;
9671;SDS011;4874;43.568;27.824;2022-08-24T01:26:10;35.15;;;11.50;;
9671;SDS011;4874;43.568;27.824;2022-08-24T01:28:39;30.00;;;10.32;;
9671;SDS011;4874;43.568;27.824;2022-08-24T01:31:09;29.08;;;9.98;;
9671;SDS011;4874;43.568;27.824;2022-08-24T01:33:36;21.83;;;9.40;;
9671;SDS011;4874;43.568;27.824;2022-08-24T01:36:07;24.77;;;10.35;;
9671;SDS011;4874;43.568;27.824;2022-08-24T01:38:40;30.95;;;10.05;;
9671;SDS011;4874;43.568;27.824;2022-08-24T01:41:07;25.48;;;9.48;;
9671;SDS011;4874;43.568;27.824;2022-08-24T01:43:34;26.30;;;10.38;;
9671;SDS011;4874;43.568;27.824;2022-08-24T01:46:02;34.72;;;9.65;;
9671;SDS011;4874;43.568;27.824;2022-08-24T01:48:29;32.95;;;10.02;;
9671;SDS011;4874;43.568;27.824;2022-08-24T01:50:56;36.13;;;9.80;;
9671;SDS011;4874;43.568;27.824;2022-08-24T01:53:23;31.13;;;10.18;;
9671;SDS011;4874;43.568;27.824;2022-08-24T01:55:50;35.20;;;8.70;;
9671;SDS011;4874;43.568;27.824;2022-08-24T01:58:17;40.83;;;10.70;;
9671;SDS011;4874;43.568;27.824;2022-08-24T02:00:44;38.28;;;10.02;;
9671;SDS011;4874;43.568;27.824;2022-08-24T02:03:11;43.55;;;9.27;;
9671;SDS011;4874;43.568;27.824;2022-08-24T02:05:38;46.58;;;9.32;;
9671;SDS011;4874;43.568;27.824;2022-08-24T02:08:05;41.92;;;9.57;;
9671;SDS011;4874;43.568;27.824;2022-08-24T02:10:32;40.28;;;9.43;;
9671;SDS011;4874;43.568;27.824;2022-08-24T02:12:59;38.85;;;9.65;;
9671;SDS011;4874;43.568;27.824;2022-08-24T02:15:30;45.15;;;9.63;;
9671;SDS011;4874;43.568;27.824;2022-08-24T02:17:59;44.13;;;9.55;;
9671;SDS011;4874;43.568;27.824;2022-08-24T02:20:26;31.13;;;7.95;;
9671;SDS011;4874;43.568;27.824;2022-08-24T02:22:55;44.60;;;9.35;;
9671;SDS011;4874;43.568;27.824;2022-08-24T02:25:22;44.13;;;9.40;;
9671;SDS011;4874;43.568;27.824;2022-08-24T02:27:50;33.97;;;8.63;;
9671;SDS011;4874;43.568;27.824;2022-08-24T02:30:16;32.10;;;8.40;;
9671;SDS011;4874;43.568;27.824;2022-08-24T02:32:43;47.35;;;10.07;;
9671;SDS011;4874;43.568;27.824;2022-08-24T02:35:10;37.55;;;8.38;;
9671;SDS011;4874;43.568;27.824;2022-08-24T02:37:37;40.10;;;8.52;;
9671;SDS011;4874;43.568;27.824;2022-08-24T02:40:09;34.58;;;7.80;;
9671;SDS011;4874;43.568;27.824;2022-08-24T02:42:36;39.45;;;9.80;;
9671;SDS011;4874;43.568;27.824;2022-08-24T02:45:04;32.42;;;9.18;;
9671;SDS011;4874;43.568;27.824;2022-08-24T02:47:31;31.67;;;8.82;;
9671;SDS011;4874;43.568;27.824;2022-08-24T02:50:00;38.55;;;8.45;;
9671;SDS011;4874;43.568;27.824;2022-08-24T02:52:28;46.80;;;9.15;;
9671;SDS011;4874;43.568;27.824;2022-08-24T02:54:55;30.45;;;7.82;;
9671;SDS011;4874;43.568;27.824;2022-08-24T02:57:22;39.15;;;8.52;;
9671;SDS011;4874;43.568;27.824;2022-08-24T02:59:48;38.05;;;9.05;;
9671;SDS011;4874;43.568;27.824;2022-08-24T03:02:15;30.63;;;6.93;;
9671;SDS011;4874;43.568;27.824;2022-08-24T03:04:44;37.08;;;8.40;;
9671;SDS011;4874;43.568;27.824;2022-08-24T03:07:14;31.63;;;7.25;;
9671;SDS011;4874;43.568;27.824;2022-08-24T03:09:41;29.35;;;7.38;;
9671;SDS011;4874;43.568;27.824;2022-08-24T03:12:08;41.53;;;7.60;;
9671;SDS011;4874;43.568;27.824;2022-08-24T03:14:35;33.00;;;6.97;;
9671;SDS011;4874;43.568;27.824;2022-08-24T03:17:02;35.55;;;7.80;;
9671;SDS011;4874;43.568;27.824;2022-08-24T03:19:29;28.48;;;6.85;;
9671;SDS011;4874;43.568;27.824;2022-08-24T03:21:56;30.38;;;6.75;;
9671;SDS011;4874;43.568;27.824;2022-08-24T03:24:23;33.22;;;7.18;;
9671;SDS011;4874;43.568;27.824;2022-08-24T03:26:49;31.20;;;6.30;;
9671;SDS011;4874;43.568;27.824;2022-08-24T03:29:16;31.23;;;6.78;;
9671;SDS011;4874;43.568;27.824;2022-08-24T03:31:44;31.48;;;6.88;;
9671;SDS011;4874;43.568;27.824;2022-08-24T03:34:11;28.58;;;6.32;;
9671;SDS011;4874;43.568;27.824;2022-08-24T03:36:39;25.85;;;5.95;;
9671;SDS011;4874;43.568;27.824;2022-08-24T03:39:07;34.63;;;6.50;;
9671;SDS011;4874;43.568;27.824;2022-08-24T03:41:33;31.90;;;7.45;;
9671;SDS011;4874;43.568;27.824;2022-08-24T03:44:00;30.75;;;6.43;;
9671;SDS011;4874;43.568;27.824;2022-08-24T03:46:27;30.10;;;6.88;;
9671;SDS011;4874;43.568;27.824;2022-08-24T03:48:55;33.55;;;6.30;;
9671;SDS011;4874;43.568;27.824;2022-08-24T03:51:24;30.42;;;6.68;;
9671;SDS011;4874;43.568;27.824;2022-08-24T03:53:54;28.85;;;6.50;;
9671;SDS011;4874;43.568;27.824;2022-08-24T03:56:22;25.63;;;7.13;;
9671;SDS011;4874;43.568;27.824;2022-08-24T03:58:49;39.20;;;7.38;;
9671;SDS011;4874;43.568;27.824;2022-08-24T04:01:16;35.72;;;7.50;;
9671;SDS011;4874;43.568;27.824;2022-08-24T04:03:44;31.85;;;7.03;;
9671;SDS011;4874;43.568;27.824;2022-08-24T04:06:12;23.95;;;5.68;;
9671;SDS011;4874;43.568;27.824;2022-08-24T04:08:41;31.60;;;7.00;;
9671;SDS011;4874;43.568;27.824;2022-08-24T04:11:09;34.22;;;8.10;;
9671;SDS011;4874;43.568;27.824;2022-08-24T04:13:38;33.10;;;10.18;;
9671;SDS011;4874;43.568;27.824;2022-08-24T04:16:08;30.58;;;9.20;;
9671;SDS011;4874;43.568;27.824;2022-08-24T04:18:38;30.85;;;7.20;;
9671;SDS011;4874;43.568;27.824;2022-08-24T04:21:05;27.63;;;7.93;;
9671;SDS011;4874;43.568;27.824;2022-08-24T04:23:39;34.03;;;7.18;;
9671;SDS011;4874;43.568;27.824;2022-08-24T04:26:14;22.42;;;6.15;;
9671;SDS011;4874;43.568;27.824;2022-08-24T04:28:49;33.15;;;7.32;;
9671;SDS011;4874;43.568;27.824;2022-08-24T04:31:17;30.20;;;6.88;;
9671;SDS011;4874;43.568;27.824;2022-08-24T04:33:45;31.17;;;7.00;;
9671;SDS011;4874;43.568;27.824;2022-08-24T04:36:15;32.38;;;6.10;;
9671;SDS011;4874;43.568;27.824;2022-08-24T04:38:48;35.00;;;7.60;;
9671;SDS011;4874;43.568;27.824;2022-08-24T04:41:16;25.77;;;6.13;;
9671;SDS011;4874;43.568;27.824;2022-08-24T04:43:52;35.08;;;6.90;;
9671;SDS011;4874;43.568;27.824;2022-08-24T04:46:19;39.28;;;6.85;;
9671;SDS011;4874;43.568;27.824;2022-08-24T04:48:47;46.25;;;16.08;;
9671;SDS011;4874;43.568;27.824;2022-08-24T04:51:15;33.50;;;7.05;;
9671;SDS011;4874;43.568;27.824;2022-08-24T04:53:44;29.98;;;7.50;;
9671;SDS011;4874;43.568;27.824;2022-08-24T04:56:13;35.72;;;7.03;;
9671;SDS011;4874;43.568;27.824;2022-08-24T04:58:42;28.25;;;6.93;;
9671;SDS011;4874;43.568;27.824;2022-08-24T05:01:15;34.00;;;5.93;;
9671;SDS011;4874;43.568;27.824;2022-08-24T05:03:45;35.75;;;5.97;;
9671;SDS011;4874;43.568;27.824;2022-08-24T05:06:15;30.58;;;7.45;;
9671;SDS011;4874;43.568;27.824;2022-08-24T05:08:43;24.33;;;6.28;;
9671;SDS011;4874;43.568;27.824;2022-08-24T05:11:12;31.80;;;6.55;;
9671;SDS011;4874;43.568;27.824;2022-08-24T05:13:40;30.13;;;6.03;;
9671;SDS011;4874;43.568;27.824;2022-08-24T05:16:07;38.15;;;6.47;;
9671;SDS011;4874;43.568;27.824;2022-08-24T05:18:37;36.50;;;7.10;;
9671;SDS011;4874;43.568;27.824;2022-08-24T05:21:08;29.73;;;6.45;;
9671;SDS011;4874;43.568;27.824;2022-08-24T05:23:36;31.95;;;6.30;;
9671;SDS011;4874;43.568;27.824;2022-08-24T05:26:09;30.33;;;5.65;;
9671;SDS011;4874;43.568;27.824;2022-08-24T05:28:38;30.10;;;5.60;;
9671;SDS011;4874;43.568;27.824;2022-08-24T05:31:09;34.78;;;6.28;;
9671;SDS011;4874;43.568;27.824;2022-08-24T05:33:38;35.58;;;6.93;;
9671;SDS011;4874;43.568;27.824;2022-08-24T05:36:13;37.20;;;6.78;;
9671;SDS011;4874;43.568;27.824;2022-08-24T05:38:43;41.83;;;7.53;;
9671;SDS011;4874;43.568;27.824;2022-08-24T05:41:10;42.33;;;6.75;;
9671;SDS011;4874;43.568;27.824;2022-08-24T05:43:36;43.50;;;7.72;;
9671;SDS011;4874;43.568;27.824;2022-08-24T05:46:04;33.55;;;7.38;;
9671;SDS011;4874;43.568;27.824;2022-08-24T05:48:31;41.53;;;9.25;;
9671;SDS011;4874;43.568;27.824;2022-08-24T05:51:00;51.75;;;7.88;;
9671;SDS011;4874;43.568;27.824;2022-08-24T05:53:28;44.10;;;7.10;;
9671;SDS011;4874;43.568;27.824;2022-08-24T05:55:56;39.95;;;7.18;;
9671;SDS011;4874;43.568;27.824;2022-08-24T05:58:23;35.22;;;6.68;;
9671;SDS011;4874;43.568;27.824;2022-08-24T06:00:54;43.80;;;6.55;;
9671;SDS011;4874;43.568;27.824;2022-08-24T06:03:21;41.53;;;6.28;;
9671;SDS011;4874;43.568;27.824;2022-08-24T06:05:47;40.70;;;7.15;;
9671;SDS011;4874;43.568;27.824;2022-08-24T06:08:14;45.40;;;9.35;;
9671;SDS011;4874;43.568;27.824;2022-08-24T06:10:42;40.53;;;7.63;;
9671;SDS011;4874;43.568;27.824;2022-08-24T06:13:10;50.13;;;7.65;;
9671;SDS011;4874;43.568;27.824;2022-08-24T06:15:37;45.90;;;7.78;;
9671;SDS011;4874;43.568;27.824;2022-08-24T06:18:05;50.53;;;9.32;;
9671;SDS011;4874;43.568;27.824;2022-08-24T06:20:36;52.30;;;9.65;;
9671;SDS011;4874;43.568;27.824;2022-08-24T06:23:05;42.70;;;8.05;;
9671;SDS011;4874;43.568;27.824;2022-08-24T06:25:32;49.00;;;8.02;;
9671;SDS011;4874;43.568;27.824;2022-08-24T06:28:18;51.05;;;7.95;;
9671;SDS011;4874;43.568;27.824;2022-08-24T06:30:44;53.33;;;7.45;;
9671;SDS011;4874;43.568;27.824;2022-08-24T06:33:11;38.65;;;6.38;;
9671;SDS011;4874;43.568;27.824;2022-08-24T06:35:38;48.28;;;8.20;;
9671;SDS011;4874;43.568;27.824;2022-08-24T06:38:08;46.63;;;7.35;;
9671;SDS011;4874;43.568;27.824;2022-08-24T06:40:35;45.50;;;8.68;;
9671;SDS011;4874;43.568;27.824;2022-08-24T06:43:02;38.63;;;7.13;;
9671;SDS011;4874;43.568;27.824;2022-08-24T06:45:29;57.47;;;8.02;;
9671;SDS011;4874;43.568;27.824;2022-08-24T06:47:56;48.90;;;8.05;;
9671;SDS011;4874;43.568;27.824;2022-08-24T06:50:23;64.55;;;9.52;;
9671;SDS011;4874;43.568;27.824;2022-08-24T06:52:50;44.55;;;7.43;;
9671;SDS011;4874;43.568;27.824;2022-08-24T06:55:17;49.35;;;6.78;;
9671;SDS011;4874;43.568;27.824;2022-08-24T06:57:44;42.88;;;7.03;;
9671;SDS011;4874;43.568;27.824;2022-08-24T07:00:15;41.97;;;6.75;;
9671;SDS011;4874;43.568;27.824;2022-08-24T07:02:42;44.28;;;7.28;;
9671;SDS011;4874;43.568;27.824;2022-08-24T07:05:09;38.30;;;7.18;;
9671;SDS011;4874;43.568;27.824;2022-08-24T07:07:36;48.42;;;6.65;;
9671;SDS011;4874;43.568;27.824;2022-08-24T07:10:04;41.17;;;7.75;;
9671;SDS011;4874;43.568;27.824;2022-08-24T07:12:34;50.15;;;6.55;;
9671;SDS011;4874;43.568;27.824;2022-08-24T07:15:02;32.85;;;5.97;;
9671;SDS011;4874;43.568;27.824;2022-08-24T07:17:30;37.78;;;6.45;;
9671;SDS011;4874;43.568;27.824;2022-08-24T07:19:56;37.33;;;6.72;;
9671;SDS011;4874;43.568;27.824;2022-08-24T07:22:23;41.40;;;6.55;;
9671;SDS011;4874;43.568;27.824;2022-08-24T07:24:50;39.47;;;7.18;;
9671;SDS011;4874;43.568;27.824;2022-08-24T07:27:16;31.38;;;6.80;;
9671;SDS011;4874;43.568;27.824;2022-08-24T07:29:43;35.65;;;6.40;;
9671;SDS011;4874;43.568;27.824;2022-08-24T07:32:18;34.13;;;7.10;;
9671;SDS011;4874;43.568;27.824;2022-08-24T07:34:45;46.45;;;6.68;;
9671;SDS011;4874;43.568;27.824;2022-08-24T07:37:11;42.40;;;5.78;;
9671;SDS011;4874;43.568;27.824;2022-08-24T07:39:38;25.90;;;5.75;;
9671;SDS011;4874;43.568;27.824;2022-08-24T07:42:05;43.80;;;7.18;;
9671;SDS011;4874;43.568;27.824;2022-08-24T07:44:46;47.60;;;7.35;;
9671;SDS011;4874;43.568;27.824;2022-08-24T07:47:12;48.17;;;6.47;;
9671;SDS011;4874;43.568;27.824;2022-08-24T07:52:26;38.95;;;6.43;;
9671;SDS011;4874;43.568;27.824;2022-08-24T07:54:53;39.97;;;5.97;;
9671;SDS011;4874;43.568;27.824;2022-08-24T07:57:20;26.08;;;5.50;;
9671;SDS011;4874;43.568;27.824;2022-08-24T07:59:46;29.52;;;4.57;;
9671;SDS011;4874;43.568;27.824;2022-08-24T08:02:13;37.50;;;5.80;;
9671;SDS011;4874;43.568;27.824;2022-08-24T08:04:40;35.90;;;5.40;;
9671;SDS011;4874;43.568;27.824;2022-08-24T08:07:07;32.60;;;5.65;;
9671;SDS011;4874;43.568;27.824;2022-08-24T08:09:36;24.90;;;5.07;;
9671;SDS011;4874;43.568;27.824;2022-08-24T08:12:03;34.70;;;5.22;;
9671;SDS011;4874;43.568;27.824;2022-08-24T08:14:31;34.00;;;4.20;;
9671;SDS011;4874;43.568;27.824;2022-08-24T08:16:58;37.05;;;6.25;;
9671;SDS011;4874;43.568;27.824;2022-08-24T08:19:25;32.55;;;4.57;;
9671;SDS011;4874;43.568;27.824;2022-08-24T08:21:52;29.95;;;5.03;;
9671;SDS011;4874;43.568;27.824;2022-08-24T08:24:38;26.85;;;4.53;;
9671;SDS011;4874;43.568;27.824;2022-08-24T08:27:08;35.65;;;5.22;;
9671;SDS011;4874;43.568;27.824;2022-08-24T08:29:36;32.65;;;4.50;;
9671;SDS011;4874;43.568;27.824;2022-08-24T08:32:09;25.50;;;4.90;;
9671;SDS011;4874;43.568;27.824;2022-08-24T08:34:42;27.42;;;4.93;;
9671;SDS011;4874;43.568;27.824;2022-08-24T08:37:10;36.20;;;5.22;;
9671;SDS011;4874;43.568;27.824;2022-08-24T08:39:38;29.40;;;4.90;;
9671;SDS011;4874;43.568;27.824;2022-08-24T08:42:24;31.40;;;5.07;;
9671;SDS011;4874;43.568;27.824;2022-08-24T08:50:24;32.63;;;4.75;;
9671;SDS011;4874;43.568;27.824;2022-08-24T08:56:39;35.33;;;5.05;;
9671;SDS011;4874;43.568;27.824;2022-08-24T09:01:31;31.13;;;5.10;;
9671;SDS011;4874;43.568;27.824;2022-08-24T09:13:04;32.22;;;5.05;;
9671;SDS011;4874;43.568;27.824;2022-08-24T09:16:27;37.55;;;7.90;;
9671;SDS011;4874;43.568;27.824;2022-08-24T09:19:14;37.58;;;5.43;;
9671;SDS011;4874;43.568;27.824;2022-08-24T09:33:06;29.88;;;4.25;;
9671;SDS011;4874;43.568;27.824;2022-08-24T10:06:27;35.90;;;5.53;;
9671;SDS011;4874;43.568;27.824;2022-08-24T10:09:18;33.20;;;8.07;;
9671;SDS011;4874;43.568;27.824;2022-08-24T10:43:09;24.33;;;4.18;;
9671;SDS011;4874;43.568;27.824;2022-08-24T10:51:33;20.25;;;3.20;;
9671;SDS011;4874;43.568;27.824;2022-08-24T10:54:21;19.30;;;3.67;;
9671;SDS011;4874;43.568;27.824;2022-08-24T10:59:30;18.02;;;3.47;;
9671;SDS011;4874;43.568;27.824;2022-08-24T11:03:03;19.48;;;4.13;;
9671;SDS011;4874;43.568;27.824;2022-08-24T11:05:02;19.85;;;3.58;;
9671;SDS011;4874;43.568;27.824;2022-08-24T11:07:54;22.48;;;3.20;;
9671;SDS011;4874;43.568;27.824;2022-08-24T11:10:25;19.85;;;3.97;;
9671;SDS011;4874;43.568;27.824;2022-08-24T11:12:56;20.08;;;3.72;;
9671;SDS011;4874;43.568;27.824;2022-08-24T11:15:49;19.85;;;3.60;;
9671;SDS011;4874;43.568;27.824;2022-08-24T11:18:23;17.98;;;4.70;;
9671;SDS011;4874;43.568;27.824;2022-08-24T11:20:53;19.83;;;3.92;;
9671;SDS011;4874;43.568;27.824;2022-08-24T11:23:22;18.38;;;3.25;;
9671;SDS011;4874;43.568;27.824;2022-08-24T11:25:58;21.25;;;3.58;;
9671;SDS011;4874;43.568;27.824;2022-08-24T11:28:36;18.85;;;4.28;;
9671;SDS011;4874;43.568;27.824;2022-08-24T11:31:13;19.48;;;3.22;;
9671;SDS011;4874;43.568;27.824;2022-08-24T11:33:51;19.00;;;3.85;;
9671;SDS011;4874;43.568;27.824;2022-08-24T11:36:33;21.67;;;3.38;;
9671;SDS011;4874;43.568;27.824;2022-08-24T11:39:25;16.45;;;3.80;;
9671;SDS011;4874;43.568;27.824;2022-08-24T11:42:21;22.30;;;3.85;;
9671;SDS011;4874;43.568;27.824;2022-08-24T11:45:13;24.25;;;3.90;;
9671;SDS011;4874;43.568;27.824;2022-08-24T11:48:00;20.52;;;3.40;;
9671;SDS011;4874;43.568;27.824;2022-08-24T11:53:38;18.77;;;3.60;;
9671;SDS011;4874;43.568;27.824;2022-08-24T11:56:36;28.67;;;5.60;;
9671;SDS011;4874;43.568;27.824;2022-08-24T11:59:18;22.63;;;4.00;;
9671;SDS011;4874;43.568;27.824;2022-08-24T12:02:14;13.38;;;3.30;;
9671;SDS011;4874;43.568;27.824;2022-08-24T12:13:47;15.77;;;3.38;;
9671;SDS011;4874;43.568;27.824;2022-08-24T12:16:26;17.33;;;3.45;;
9671;SDS011;4874;43.568;27.824;2022-08-24T12:19:10;17.88;;;3.72;;
9671;SDS011;4874;43.568;27.824;2022-08-24T12:21:42;15.38;;;3.78;;
9671;SDS011;4874;43.568;27.824;2022-08-24T12:24:59;19.60;;;4.78;;
9671;SDS011;4874;43.568;27.824;2022-08-24T12:27:07;20.20;;;3.30;;
9671;SDS011;4874;43.568;27.824;2022-08-24T12:32:18;20.60;;;3.60;;
9671;SDS011;4874;43.568;27.824;2022-08-24T12:34:54;16.75;;;3.60;;
9671;SDS011;4874;43.568;27.824;2022-08-24T12:37:27;18.17;;;3.63;;
9671;SDS011;4874;43.568;27.824;2022-08-24T12:40:11;17.83;;;3.33;;
9671;SDS011;4874;43.568;27.824;2022-08-24T12:43:14;13.35;;;2.83;;
9671;SDS011;4874;43.568;27.824;2022-08-24T12:45:43;15.45;;;3.70;;
9671;SDS011;4874;43.568;27.824;2022-08-24T12:48:20;19.77;;;4.15;;
9671;SDS011;4874;43.568;27.824;2022-08-24T13:01:43;14.98;;;3.20;;
9671;SDS011;4874;43.568;27.824;2022-08-24T13:04:32;17.70;;;3.33;;
9671;SDS011;4874;43.568;27.824;2022-08-24T13:07:46;12.13;;;3.15;;
9671;SDS011;4874;43.568;27.824;2022-08-24T13:17:49;15.43;;;3.35;;
9671;SDS011;4874;43.568;27.824;2022-08-24T13:33:58;17.50;;;3.15;;
9671;SDS011;4874;43.568;27.824;2022-08-24T13:40:03;18.75;;;2.85;;
9671;SDS011;4874;43.568;27.824;2022-08-24T13:54:22;14.15;;;3.25;;
9671;SDS011;4874;43.568;27.824;2022-08-24T14:05:32;13.25;;;3.08;;
9671;SDS011;4874;43.568;27.824;2022-08-24T14:16:19;13.25;;;2.90;;
9671;SDS011;4874;43.568;27.824;2022-08-24T14:25:19;13.85;;;3.42;;
9671;SDS011;4874;43.568;27.824;2022-08-24T14:35:29;18.83;;;4.10;;
9671;SDS011;4874;43.568;27.824;2022-08-24T14:46:37;13.27;;;3.72;;
9671;SDS011;4874;43.568;27.824;2022-08-24T15:00:12;11.80;;;3.95;;
9671;SDS011;4874;43.568;27.824;2022-08-24T15:05:47;19.58;;;3.92;;
9671;SDS011;4874;43.568;27.824;2022-08-24T15:08:46;14.57;;;3.83;;
9671;SDS011;4874;43.568;27.824;2022-08-24T15:11:14;15.68;;;3.90;;
9671;SDS011;4874;43.568;27.824;2022-08-24T15:13:47;18.85;;;3.70;;
9671;SDS011;4874;43.568;27.824;2022-08-24T15:16:25;13.18;;;4.60;;
9671;SDS011;4874;43.568;27.824;2022-08-24T15:22:02;23.08;;;4.45;;
9671;SDS011;4874;43.568;27.824;2022-08-24T15:24:46;16.38;;;4.05;;
9671;SDS011;4874;43.568;27.824;2022-08-24T15:27:26;18.40;;;3.90;;
9671;SDS011;4874;43.568;27.824;2022-08-24T15:30:17;22.63;;;4.22;;
9671;SDS011;4874;43.568;27.824;2022-08-24T15:32:53;14.05;;;3.30;;
9671;SDS011;4874;43.568;27.824;2022-08-24T15:35:28;16.15;;;4.63;;
9671;SDS011;4874;43.568;27.824;2022-08-24T15:38:14;15.75;;;3.78;;
9671;SDS011;4874;43.568;27.824;2022-08-24T15:46:37;15.82;;;3.15;;
9671;SDS011;4874;43.568;27.824;2022-08-24T15:52:58;24.20;;;3.38;;
9671;SDS011;4874;43.568;27.824;2022-08-24T15:55:25;22.52;;;3.75;;
9671;SDS011;4874;43.568;27.824;2022-08-24T16:01:37;26.85;;;5.15;;
9671;SDS011;4874;43.568;27.824;2022-08-24T16:04:12;26.50;;;4.68;;
9671;SDS011;4874;43.568;27.824;2022-08-24T16:06:59;25.60;;;4.38;;
9671;SDS011;4874;43.568;27.824;2022-08-24T16:14:23;26.35;;;5.30;;
9671;SDS011;4874;43.568;27.824;2022-08-24T16:16:54;31.67;;;4.93;;
9671;SDS011;4874;43.568;27.824;2022-08-24T16:19:25;38.75;;;5.20;;
9671;SDS011;4874;43.568;27.824;2022-08-24T16:22:02;31.42;;;4.65;;
9671;SDS011;4874;43.568;27.824;2022-08-24T16:24:36;28.23;;;4.72;;
9671;SDS011;4874;43.568;27.824;2022-08-24T16:27:11;36.42;;;4.50;;
9671;SDS011;4874;43.568;27.824;2022-08-24T16:35:13;38.30;;;4.70;;
9671;SDS011;4874;43.568;27.824;2022-08-24T16:37:45;37.17;;;5.65;;
9671;SDS011;4874;43.568;27.824;2022-08-24T16:40:11;35.08;;;5.70;;
9671;SDS011;4874;43.568;27.824;2022-08-24T16:42:39;27.55;;;4.32;;
9671;SDS011;4874;43.568;27.824;2022-08-24T16:45:07;31.77;;;5.60;;
9671;SDS011;4874;43.568;27.824;2022-08-24T16:47:37;37.05;;;6.68;;
9671;SDS011;4874;43.568;27.824;2022-08-24T16:50:04;32.55;;;5.30;;
9671;SDS011;4874;43.568;27.824;2022-08-24T16:52:32;30.38;;;5.72;;
9671;SDS011;4874;43.568;27.824;2022-08-24T16:54:58;29.90;;;4.43;;
9671;SDS011;4874;43.568;27.824;2022-08-24T16:57:27;36.13;;;5.60;;
9671;SDS011;4874;43.568;27.824;2022-08-24T16:59:56;41.72;;;10.57;;
9671;SDS011;4874;43.568;27.824;2022-08-24T17:02:23;35.55;;;5.38;;
9671;SDS011;4874;43.568;27.824;2022-08-24T17:04:51;48.00;;;6.82;;
9671;SDS011;4874;43.568;27.824;2022-08-24T17:07:23;33.63;;;5.47;;
9671;SDS011;4874;43.568;27.824;2022-08-24T17:09:53;41.72;;;6.65;;
9671;SDS011;4874;43.568;27.824;2022-08-24T17:12:21;39.03;;;6.47;;
9671;SDS011;4874;43.568;27.824;2022-08-24T17:14:48;44.05;;;6.80;;
9671;SDS011;4874;43.568;27.824;2022-08-24T17:17:16;38.72;;;5.68;;
9671;SDS011;4874;43.568;27.824;2022-08-24T17:19:50;39.53;;;6.32;;
9671;SDS011;4874;43.568;27.824;2022-08-24T17:22:19;31.95;;;6.00;;
9671;SDS011;4874;43.568;27.824;2022-08-24T17:24:50;50.88;;;7.07;;
9671;SDS011;4874;43.568;27.824;2022-08-24T17:27:18;44.55;;;6.10;;
9671;SDS011;4874;43.568;27.824;2022-08-24T17:29:49;39.42;;;7.53;;
9671;SDS011;4874;43.568;27.824;2022-08-24T17:32:16;39.85;;;5.22;;
9671;SDS011;4874;43.568;27.824;2022-08-24T17:34:43;51.55;;;8.40;;
9671;SDS011;4874;43.568;27.824;2022-08-24T17:37:10;42.20;;;5.72;;
9671;SDS011;4874;43.568;27.824;2022-08-24T17:39:37;41.63;;;5.97;;
9671;SDS011;4874;43.568;27.824;2022-08-24T17:42:04;44.95;;;7.63;;
9671;SDS011;4874;43.568;27.824;2022-08-24T17:44:46;37.83;;;5.75;;
9671;SDS011;4874;43.568;27.824;2022-08-24T17:47:13;38.08;;;7.55;;
9671;SDS011;4874;43.568;27.824;2022-08-24T17:49:40;36.15;;;5.95;;
9671;SDS011;4874;43.568;27.824;2022-08-24T17:52:07;36.10;;;6.22;;
9671;SDS011;4874;43.568;27.824;2022-08-24T17:54:33;40.20;;;6.18;;
9671;SDS011;4874;43.568;27.824;2022-08-24T17:57:00;48.38;;;6.53;;
9671;SDS011;4874;43.568;27.824;2022-08-24T17:59:29;39.00;;;6.50;;
9671;SDS011;4874;43.568;27.824;2022-08-24T18:01:59;45.55;;;6.47;;
9671;SDS011;4874;43.568;27.824;2022-08-24T18:04:28;29.20;;;5.30;;
9671;SDS011;4874;43.568;27.824;2022-08-24T18:06:57;47.90;;;8.02;;
9671;SDS011;4874;43.568;27.824;2022-08-24T18:09:30;39.25;;;6.47;;
9671;SDS011;4874;43.568;27.824;2022-08-24T18:11:59;57.40;;;7.03;;
9671;SDS011;4874;43.568;27.824;2022-08-24T18:14:27;48.58;;;5.90;;
9671;SDS011;4874;43.568;27.824;2022-08-24T18:16:55;53.08;;;7.22;;
9671;SDS011;4874;43.568;27.824;2022-08-24T18:19:23;57.55;;;7.03;;
9671;SDS011;4874;43.568;27.824;2022-08-24T18:21:51;39.17;;;6.65;;
9671;SDS011;4874;43.568;27.824;2022-08-24T18:24:18;43.85;;;6.78;;
9671;SDS011;4874;43.568;27.824;2022-08-24T18:26:45;43.72;;;6.53;;
9671;SDS011;4874;43.568;27.824;2022-08-24T18:29:15;46.38;;;6.45;;
9671;SDS011;4874;43.568;27.824;2022-08-24T18:31:46;44.38;;;6.63;;
9671;SDS011;4874;43.568;27.824;2022-08-24T18:34:18;46.38;;;7.57;;
9671;SDS011;4874;43.568;27.824;2022-08-24T18:36:46;43.05;;;7.32;;
9671;SDS011;4874;43.568;27.824;2022-08-24T18:39:14;42.08;;;6.30;;
9671;SDS011;4874;43.568;27.824;2022-08-24T18:41:41;47.42;;;7.78;;
9671;SDS011;4874;43.568;27.824;2022-08-24T18:44:16;35.08;;;5.95;;
9671;SDS011;4874;43.568;27.824;2022-08-24T18:46:45;49.58;;;7.00;;
9671;SDS011;4874;43.568;27.824;2022-08-24T18:49:13;36.47;;;5.93;;
9671;SDS011;4874;43.568;27.824;2022-08-24T18:51:40;37.25;;;6.88;;
9671;SDS011;4874;43.568;27.824;2022-08-24T18:54:13;34.03;;;6.70;;
9671;SDS011;4874;43.568;27.824;2022-08-24T18:56:42;37.35;;;5.43;;
9671;SDS011;4874;43.568;27.824;2022-08-24T18:59:11;40.25;;;7.05;;
9671;SDS011;4874;43.568;27.824;2022-08-24T19:01:40;37.92;;;6.30;;
9671;SDS011;4874;43.568;27.824;2022-08-24T19:04:27;38.45;;;6.22;;
9671;SDS011;4874;43.568;27.824;2022-08-24T19:06:54;39.80;;;6.57;;
9671;SDS011;4874;43.568;27.824;2022-08-24T19:09:21;36.20;;;7.20;;
9671;SDS011;4874;43.568;27.824;2022-08-24T19:11:48;35.00;;;5.90;;
9671;SDS011;4874;43.568;27.824;2022-08-24T19:14:15;35.10;;;6.40;;
9671;SDS011;4874;43.568;27.824;2022-08-24T19:16:42;41.53;;;6.50;;
9671;SDS011;4874;43.568;27.824;2022-08-24T19:19:09;41.10;;;5.88;;